sensor_id;sensor_type;location;lat;lon;timestamp;P1;durP1;ratioP1;P2;durP2;ratioP2
22298;SDS011;11317;51.072;17.036;2022-11-04T00:01:33;19.60;;;8.40;;
22298;SDS011;11317;51.072;17.036;2022-11-04T00:04:01;16.92;;;9.63;;
22298;SDS011;11317;51.072;17.036;2022-11-04T00:06:27;19.80;;;9.75;;
22298;SDS011;11317;51.072;17.036;2022-11-04T00:08:54;22.25;;;9.68;;
22298;SDS011;11317;51.072;17.036;2022-11-04T00:11:22;18.02;;;9.95;;
22298;SDS011;11317;51.072;17.036;2022-11-04T00:14:06;16.50;;;9.52;;
22298;SDS011;11317;51.072;17.036;2022-11-04T00:16:33;17.40;;;8.88;;
22298;SDS011;11317;51.072;17.036;2022-11-04T00:19:18;14.38;;;8.70;;
22298;SDS011;11317;51.072;17.036;2022-11-04T00:21:44;18.25;;;9.65;;
22298;SDS011;11317;51.072;17.036;2022-11-04T00:24:28;17.88;;;9.55;;
22298;SDS011;11317;51.072;17.036;2022-11-04T00:27:16;22.15;;;9.65;;
22298;SDS011;11317;51.072;17.036;2022-11-04T00:30:04;19.30;;;8.90;;
22298;SDS011;11317;51.072;17.036;2022-11-04T00:32:33;15.77;;;9.13;;
22298;SDS011;11317;51.072;17.036;2022-11-04T00:35:18;20.95;;;8.82;;
22298;SDS011;11317;51.072;17.036;2022-11-04T00:37:44;16.77;;;8.43;;
22298;SDS011;11317;51.072;17.036;2022-11-04T00:40:11;18.98;;;9.25;;
22298;SDS011;11317;51.072;17.036;2022-11-04T00:42:41;23.40;;;9.10;;
22298;SDS011;11317;51.072;17.036;2022-11-04T00:45:08;16.95;;;9.27;;
22298;SDS011;11317;51.072;17.036;2022-11-04T00:47:34;18.35;;;8.55;;
22298;SDS011;11317;51.072;17.036;2022-11-04T00:50:00;14.60;;;8.65;;
22298;SDS011;11317;51.072;17.036;2022-11-04T00:52:26;15.73;;;8.32;;
22298;SDS011;11317;51.072;17.036;2022-11-04T00:54:52;15.57;;;7.85;;
22298;SDS011;11317;51.072;17.036;2022-11-04T00:57:18;17.08;;;9.23;;
22298;SDS011;11317;51.072;17.036;2022-11-04T00:59:44;15.38;;;8.27;;
22298;SDS011;11317;51.072;17.036;2022-11-04T01:02:11;14.90;;;8.13;;
22298;SDS011;11317;51.072;17.036;2022-11-04T01:04:37;20.33;;;8.88;;
22298;SDS011;11317;51.072;17.036;2022-11-04T01:07:04;13.52;;;8.27;;
22298;SDS011;11317;51.072;17.036;2022-11-04T01:09:30;15.30;;;8.32;;
22298;SDS011;11317;51.072;17.036;2022-11-04T01:11:56;16.55;;;8.80;;
22298;SDS011;11317;51.072;17.036;2022-11-04T01:14:22;20.27;;;9.48;;
22298;SDS011;11317;51.072;17.036;2022-11-04T01:16:48;20.63;;;8.75;;
22298;SDS011;11317;51.072;17.036;2022-11-04T01:19:14;16.30;;;7.93;;
22298;SDS011;11317;51.072;17.036;2022-11-04T01:21:40;17.30;;;8.75;;
22298;SDS011;11317;51.072;17.036;2022-11-04T01:24:06;19.15;;;9.45;;
22298;SDS011;11317;51.072;17.036;2022-11-04T01:26:33;17.75;;;9.80;;
22298;SDS011;11317;51.072;17.036;2022-11-04T01:28:58;16.02;;;8.93;;
22298;SDS011;11317;51.072;17.036;2022-11-04T01:31:25;16.58;;;8.27;;
22298;SDS011;11317;51.072;17.036;2022-11-04T01:33:53;16.95;;;8.40;;
22298;SDS011;11317;51.072;17.036;2022-11-04T01:36:19;17.25;;;8.27;;
22298;SDS011;11317;51.072;17.036;2022-11-04T01:38:45;15.18;;;8.32;;
22298;SDS011;11317;51.072;17.036;2022-11-04T01:41:19;19.92;;;8.77;;
22298;SDS011;11317;51.072;17.036;2022-11-04T01:52:03;19.00;;;8.65;;
22298;SDS011;11317;51.072;17.036;2022-11-04T01:54:32;14.88;;;7.97;;
22298;SDS011;11317;51.072;17.036;2022-11-04T01:56:59;16.58;;;8.63;;
22298;SDS011;11317;51.072;17.036;2022-11-04T01:59:29;17.08;;;8.07;;
22298;SDS011;11317;51.072;17.036;2022-11-04T02:01:59;18.30;;;8.00;;
22298;SDS011;11317;51.072;17.036;2022-11-04T02:04:25;14.90;;;8.07;;
22298;SDS011;11317;51.072;17.036;2022-11-04T02:06:58;20.33;;;9.05;;
22298;SDS011;11317;51.072;17.036;2022-11-04T02:09:27;19.55;;;10.32;;
22298;SDS011;11317;51.072;17.036;2022-11-04T02:11:54;14.70;;;8.60;;
22298;SDS011;11317;51.072;17.036;2022-11-04T02:14:39;20.25;;;10.32;;
22298;SDS011;11317;51.072;17.036;2022-11-04T02:22:47;17.20;;;8.70;;
22298;SDS011;11317;51.072;17.036;2022-11-04T02:31:24;23.08;;;9.30;;
22298;SDS011;11317;51.072;17.036;2022-11-04T02:34:06;16.27;;;8.40;;
22298;SDS011;11317;51.072;17.036;2022-11-04T02:36:47;15.00;;;7.90;;
22298;SDS011;11317;51.072;17.036;2022-11-04T02:39:37;22.38;;;9.02;;
22298;SDS011;11317;51.072;17.036;2022-11-04T02:44:48;16.42;;;8.82;;
22298;SDS011;11317;51.072;17.036;2022-11-04T02:47:18;15.18;;;8.18;;
22298;SDS011;11317;51.072;17.036;2022-11-04T02:49:51;18.13;;;8.45;;
22298;SDS011;11317;51.072;17.036;2022-11-04T02:52:29;14.40;;;8.45;;
22298;SDS011;11317;51.072;17.036;2022-11-04T02:55:02;17.33;;;9.00;;
22298;SDS011;11317;51.072;17.036;2022-11-04T02:57:49;17.38;;;7.85;;
22298;SDS011;11317;51.072;17.036;2022-11-04T03:00:19;12.95;;;7.95;;
22298;SDS011;11317;51.072;17.036;2022-11-04T03:02:47;17.90;;;8.77;;
22298;SDS011;11317;51.072;17.036;2022-11-04T03:05:20;21.55;;;8.65;;
22298;SDS011;11317;51.072;17.036;2022-11-04T03:07:50;15.40;;;7.57;;
22298;SDS011;11317;51.072;17.036;2022-11-04T03:10:27;14.80;;;7.85;;
22298;SDS011;11317;51.072;17.036;2022-11-04T03:13:01;15.10;;;7.78;;
22298;SDS011;11317;51.072;17.036;2022-11-04T03:15:35;15.63;;;8.45;;
22298;SDS011;11317;51.072;17.036;2022-11-04T03:20:30;14.93;;;8.20;;
22298;SDS011;11317;51.072;17.036;2022-11-04T03:22:56;18.10;;;8.38;;
22298;SDS011;11317;51.072;17.036;2022-11-04T03:25:28;18.30;;;8.65;;
22298;SDS011;11317;51.072;17.036;2022-11-04T03:28:01;19.63;;;8.30;;
22298;SDS011;11317;51.072;17.036;2022-11-04T03:30:37;15.48;;;8.55;;
22298;SDS011;11317;51.072;17.036;2022-11-04T03:35:44;17.85;;;9.18;;
22298;SDS011;11317;51.072;17.036;2022-11-04T03:38:10;21.35;;;9.38;;
22298;SDS011;11317;51.072;17.036;2022-11-04T03:40:37;20.17;;;8.68;;
22298;SDS011;11317;51.072;17.036;2022-11-04T03:43:13;18.63;;;8.13;;
22298;SDS011;11317;51.072;17.036;2022-11-04T03:45:43;16.15;;;8.00;;
22298;SDS011;11317;51.072;17.036;2022-11-04T03:48:10;19.15;;;8.60;;
22298;SDS011;11317;51.072;17.036;2022-11-04T03:50:40;13.85;;;8.10;;
22298;SDS011;11317;51.072;17.036;2022-11-04T03:53:07;18.08;;;8.85;;
22298;SDS011;11317;51.072;17.036;2022-11-04T03:58:09;16.52;;;8.73;;
22298;SDS011;11317;51.072;17.036;2022-11-04T04:00:41;17.42;;;9.18;;
22298;SDS011;11317;51.072;17.036;2022-11-04T04:03:17;17.77;;;8.40;;
22298;SDS011;11317;51.072;17.036;2022-11-04T04:06:02;17.40;;;9.50;;
22298;SDS011;11317;51.072;17.036;2022-11-04T04:08:43;20.95;;;9.45;;
22298;SDS011;11317;51.072;17.036;2022-11-04T04:11:18;18.55;;;8.52;;
22298;SDS011;11317;51.072;17.036;2022-11-04T04:13:55;19.92;;;9.32;;
22298;SDS011;11317;51.072;17.036;2022-11-04T04:17:04;16.40;;;8.65;;
22298;SDS011;11317;51.072;17.036;2022-11-04T04:19:59;21.20;;;9.25;;
22298;SDS011;11317;51.072;17.036;2022-11-04T04:22:29;22.60;;;9.73;;
22298;SDS011;11317;51.072;17.036;2022-11-04T04:25:03;18.45;;;8.88;;
22298;SDS011;11317;51.072;17.036;2022-11-04T04:27:50;18.33;;;8.75;;
22298;SDS011;11317;51.072;17.036;2022-11-04T04:30:16;19.42;;;9.43;;
22298;SDS011;11317;51.072;17.036;2022-11-04T04:32:43;17.98;;;9.10;;
22298;SDS011;11317;51.072;17.036;2022-11-04T04:35:11;20.60;;;9.45;;
22298;SDS011;11317;51.072;17.036;2022-11-04T04:37:57;16.90;;;8.77;;
22298;SDS011;11317;51.072;17.036;2022-11-04T04:40:46;20.83;;;10.02;;
22298;SDS011;11317;51.072;17.036;2022-11-04T04:43:37;17.70;;;9.25;;
22298;SDS011;11317;51.072;17.036;2022-11-04T04:46:41;22.50;;;10.07;;
22298;SDS011;11317;51.072;17.036;2022-11-04T04:49:09;21.40;;;9.40;;
22298;SDS011;11317;51.072;17.036;2022-11-04T04:51:39;21.75;;;9.43;;
22298;SDS011;11317;51.072;17.036;2022-11-04T04:54:07;23.65;;;10.52;;
22298;SDS011;11317;51.072;17.036;2022-11-04T04:56:33;23.55;;;10.15;;
22298;SDS011;11317;51.072;17.036;2022-11-04T04:58:59;24.08;;;11.15;;
22298;SDS011;11317;51.072;17.036;2022-11-04T05:01:25;20.58;;;9.38;;
22298;SDS011;11317;51.072;17.036;2022-11-04T05:03:51;29.05;;;14.73;;
22298;SDS011;11317;51.072;17.036;2022-11-04T05:06:17;23.10;;;9.93;;
22298;SDS011;11317;51.072;17.036;2022-11-04T05:08:43;22.63;;;9.43;;
22298;SDS011;11317;51.072;17.036;2022-11-04T05:11:09;22.45;;;10.77;;
22298;SDS011;11317;51.072;17.036;2022-11-04T05:13:35;27.35;;;11.90;;
22298;SDS011;11317;51.072;17.036;2022-11-04T05:16:03;26.52;;;11.57;;
22298;SDS011;11317;51.072;17.036;2022-11-04T05:18:30;22.13;;;10.52;;
22298;SDS011;11317;51.072;17.036;2022-11-04T05:20:56;22.83;;;10.57;;
22298;SDS011;11317;51.072;17.036;2022-11-04T05:23:22;25.05;;;12.48;;
22298;SDS011;11317;51.072;17.036;2022-11-04T05:25:48;27.83;;;11.77;;
22298;SDS011;11317;51.072;17.036;2022-11-04T05:28:14;20.67;;;10.38;;
22298;SDS011;11317;51.072;17.036;2022-11-04T05:30:40;24.10;;;11.10;;
22298;SDS011;11317;51.072;17.036;2022-11-04T05:33:06;22.58;;;12.18;;
22298;SDS011;11317;51.072;17.036;2022-11-04T05:35:32;22.90;;;11.30;;
22298;SDS011;11317;51.072;17.036;2022-11-04T05:37:58;22.90;;;11.23;;
22298;SDS011;11317;51.072;17.036;2022-11-04T05:40:24;24.45;;;11.55;;
22298;SDS011;11317;51.072;17.036;2022-11-04T05:42:50;25.80;;;12.13;;
22298;SDS011;11317;51.072;17.036;2022-11-04T05:45:17;30.45;;;12.23;;
22298;SDS011;11317;51.072;17.036;2022-11-04T05:47:43;30.13;;;11.95;;
22298;SDS011;11317;51.072;17.036;2022-11-04T05:50:09;26.17;;;12.15;;
22298;SDS011;11317;51.072;17.036;2022-11-04T05:52:35;26.10;;;12.60;;
22298;SDS011;11317;51.072;17.036;2022-11-04T05:55:01;30.05;;;12.27;;
22298;SDS011;11317;51.072;17.036;2022-11-04T05:57:27;25.60;;;13.15;;
22298;SDS011;11317;51.072;17.036;2022-11-04T05:59:53;27.35;;;11.50;;
22298;SDS011;11317;51.072;17.036;2022-11-04T06:02:19;27.98;;;13.00;;
22298;SDS011;11317;51.072;17.036;2022-11-04T06:04:45;27.00;;;12.40;;
22298;SDS011;11317;51.072;17.036;2022-11-04T06:07:11;33.55;;;13.80;;
22298;SDS011;11317;51.072;17.036;2022-11-04T06:09:37;30.48;;;12.95;;
22298;SDS011;11317;51.072;17.036;2022-11-04T06:12:13;29.38;;;12.25;;
22298;SDS011;11317;51.072;17.036;2022-11-04T06:14:40;34.03;;;14.15;;
22298;SDS011;11317;51.072;17.036;2022-11-04T06:17:06;26.25;;;12.40;;
22298;SDS011;11317;51.072;17.036;2022-11-04T06:19:32;24.52;;;11.70;;
22298;SDS011;11317;51.072;17.036;2022-11-04T06:21:58;24.40;;;12.45;;
22298;SDS011;11317;51.072;17.036;2022-11-04T06:24:25;31.00;;;14.07;;
22298;SDS011;11317;51.072;17.036;2022-11-04T06:26:51;25.20;;;12.77;;
22298;SDS011;11317;51.072;17.036;2022-11-04T06:29:17;32.53;;;14.50;;
22298;SDS011;11317;51.072;17.036;2022-11-04T06:31:43;30.77;;;12.80;;
22298;SDS011;11317;51.072;17.036;2022-11-04T06:34:09;31.83;;;15.13;;
22298;SDS011;11317;51.072;17.036;2022-11-04T06:36:35;36.70;;;14.73;;
22298;SDS011;11317;51.072;17.036;2022-11-04T06:39:01;32.83;;;14.50;;
22298;SDS011;11317;51.072;17.036;2022-11-04T06:41:29;40.53;;;15.65;;
22298;SDS011;11317;51.072;17.036;2022-11-04T06:43:55;32.30;;;13.80;;
22298;SDS011;11317;51.072;17.036;2022-11-04T06:46:29;34.72;;;14.60;;
22298;SDS011;11317;51.072;17.036;2022-11-04T06:49:04;27.95;;;13.63;;
22298;SDS011;11317;51.072;17.036;2022-11-04T06:51:30;35.67;;;14.73;;
22298;SDS011;11317;51.072;17.036;2022-11-04T06:53:56;28.15;;;14.25;;
22298;SDS011;11317;51.072;17.036;2022-11-04T06:56:22;34.22;;;16.00;;
22298;SDS011;11317;51.072;17.036;2022-11-04T06:58:51;30.50;;;15.38;;
22298;SDS011;11317;51.072;17.036;2022-11-04T07:01:19;30.70;;;14.38;;
22298;SDS011;11317;51.072;17.036;2022-11-04T07:03:52;27.08;;;14.82;;
22298;SDS011;11317;51.072;17.036;2022-11-04T07:06:19;29.48;;;14.02;;
22298;SDS011;11317;51.072;17.036;2022-11-04T07:08:46;32.95;;;13.80;;
22298;SDS011;11317;51.072;17.036;2022-11-04T07:11:13;22.02;;;12.55;;
22298;SDS011;11317;51.072;17.036;2022-11-04T07:13:39;29.15;;;14.32;;
22298;SDS011;11317;51.072;17.036;2022-11-04T07:16:06;29.75;;;15.25;;
22298;SDS011;11317;51.072;17.036;2022-11-04T07:18:33;27.10;;;13.98;;
22298;SDS011;11317;51.072;17.036;2022-11-04T07:20:59;28.20;;;14.40;;
22298;SDS011;11317;51.072;17.036;2022-11-04T07:23:25;29.38;;;13.35;;
22298;SDS011;11317;51.072;17.036;2022-11-04T07:25:51;27.23;;;13.85;;
22298;SDS011;11317;51.072;17.036;2022-11-04T07:28:18;25.80;;;13.15;;
22298;SDS011;11317;51.072;17.036;2022-11-04T07:30:44;24.65;;;13.05;;
22298;SDS011;11317;51.072;17.036;2022-11-04T07:33:10;27.70;;;12.73;;
22298;SDS011;11317;51.072;17.036;2022-11-04T07:35:36;20.65;;;12.45;;
22298;SDS011;11317;51.072;17.036;2022-11-04T07:38:03;24.90;;;11.77;;
22298;SDS011;11317;51.072;17.036;2022-11-04T07:40:29;25.88;;;12.52;;
22298;SDS011;11317;51.072;17.036;2022-11-04T07:42:55;21.83;;;11.95;;
22298;SDS011;11317;51.072;17.036;2022-11-04T07:45:21;20.00;;;11.07;;
22298;SDS011;11317;51.072;17.036;2022-11-04T07:47:47;22.13;;;12.27;;
22298;SDS011;11317;51.072;17.036;2022-11-04T07:50:13;25.73;;;12.32;;
22298;SDS011;11317;51.072;17.036;2022-11-04T07:52:38;23.65;;;11.93;;
22298;SDS011;11317;51.072;17.036;2022-11-04T07:55:04;19.65;;;10.43;;
22298;SDS011;11317;51.072;17.036;2022-11-04T07:57:30;20.70;;;10.88;;
22298;SDS011;11317;51.072;17.036;2022-11-04T07:59:56;23.40;;;11.02;;
22298;SDS011;11317;51.072;17.036;2022-11-04T08:02:22;21.55;;;10.82;;
22298;SDS011;11317;51.072;17.036;2022-11-04T08:04:48;19.95;;;10.95;;
22298;SDS011;11317;51.072;17.036;2022-11-04T08:07:14;17.98;;;11.00;;
22298;SDS011;11317;51.072;17.036;2022-11-04T08:09:41;24.05;;;10.48;;
22298;SDS011;11317;51.072;17.036;2022-11-04T08:12:06;21.77;;;10.93;;
22298;SDS011;11317;51.072;17.036;2022-11-04T08:14:33;21.05;;;10.93;;
22298;SDS011;11317;51.072;17.036;2022-11-04T08:16:59;19.10;;;10.23;;
22298;SDS011;11317;51.072;17.036;2022-11-04T08:19:25;16.45;;;10.00;;
22298;SDS011;11317;51.072;17.036;2022-11-04T08:21:51;19.70;;;9.93;;
22298;SDS011;11317;51.072;17.036;2022-11-04T08:24:17;20.17;;;10.65;;
22298;SDS011;11317;51.072;17.036;2022-11-04T08:26:43;22.38;;;11.27;;
22298;SDS011;11317;51.072;17.036;2022-11-04T08:29:10;18.05;;;9.70;;
22298;SDS011;11317;51.072;17.036;2022-11-04T08:31:35;16.20;;;10.23;;
22298;SDS011;11317;51.072;17.036;2022-11-04T08:34:02;18.60;;;10.75;;
22298;SDS011;11317;51.072;17.036;2022-11-04T08:36:34;19.45;;;11.90;;
22298;SDS011;11317;51.072;17.036;2022-11-04T08:39:01;19.90;;;10.50;;
22298;SDS011;11317;51.072;17.036;2022-11-04T08:41:29;19.02;;;10.35;;
22298;SDS011;11317;51.072;17.036;2022-11-04T08:43:56;17.80;;;10.88;;
22298;SDS011;11317;51.072;17.036;2022-11-04T08:46:28;21.50;;;11.73;;
22298;SDS011;11317;51.072;17.036;2022-11-04T08:48:57;19.58;;;11.45;;
22298;SDS011;11317;51.072;17.036;2022-11-04T08:51:24;17.95;;;11.05;;
22298;SDS011;11317;51.072;17.036;2022-11-04T08:53:50;17.55;;;10.27;;
22298;SDS011;11317;51.072;17.036;2022-11-04T08:56:18;21.25;;;12.07;;
22298;SDS011;11317;51.072;17.036;2022-11-04T08:58:49;20.15;;;10.90;;
22298;SDS011;11317;51.072;17.036;2022-11-04T09:01:15;17.13;;;10.43;;
22298;SDS011;11317;51.072;17.036;2022-11-04T09:03:42;20.13;;;10.35;;
22298;SDS011;11317;51.072;17.036;2022-11-04T09:06:09;22.73;;;11.43;;
22298;SDS011;11317;51.072;17.036;2022-11-04T09:08:37;21.67;;;11.35;;
22298;SDS011;11317;51.072;17.036;2022-11-04T09:11:06;18.27;;;9.93;;
22298;SDS011;11317;51.072;17.036;2022-11-04T09:13:34;19.30;;;10.77;;
22298;SDS011;11317;51.072;17.036;2022-11-04T09:16:00;22.02;;;10.40;;
22298;SDS011;11317;51.072;17.036;2022-11-04T09:18:26;17.27;;;9.80;;
22298;SDS011;11317;51.072;17.036;2022-11-04T09:20:52;21.88;;;11.13;;
22298;SDS011;11317;51.072;17.036;2022-11-04T09:23:18;18.50;;;10.15;;
22298;SDS011;11317;51.072;17.036;2022-11-04T09:25:44;19.30;;;10.57;;
22298;SDS011;11317;51.072;17.036;2022-11-04T09:28:10;18.83;;;10.77;;
22298;SDS011;11317;51.072;17.036;2022-11-04T09:30:36;18.92;;;10.35;;
22298;SDS011;11317;51.072;17.036;2022-11-04T09:33:02;18.85;;;10.38;;
22298;SDS011;11317;51.072;17.036;2022-11-04T09:35:28;18.55;;;9.68;;
22298;SDS011;11317;51.072;17.036;2022-11-04T09:37:55;15.25;;;8.93;;
22298;SDS011;11317;51.072;17.036;2022-11-04T09:40:23;19.20;;;10.45;;
22298;SDS011;11317;51.072;17.036;2022-11-04T09:42:56;17.85;;;9.80;;
22298;SDS011;11317;51.072;17.036;2022-11-04T09:45:42;17.45;;;10.35;;
22298;SDS011;11317;51.072;17.036;2022-11-04T09:48:11;16.63;;;9.13;;
22298;SDS011;11317;51.072;17.036;2022-11-04T09:50:49;16.10;;;9.35;;
22298;SDS011;11317;51.072;17.036;2022-11-04T09:55:53;19.63;;;9.18;;
22298;SDS011;11317;51.072;17.036;2022-11-04T09:58:22;15.95;;;8.82;;
22298;SDS011;11317;51.072;17.036;2022-11-04T10:01:32;15.82;;;8.77;;
22298;SDS011;11317;51.072;17.036;2022-11-04T10:06:54;13.75;;;8.13;;
22298;SDS011;11317;51.072;17.036;2022-11-04T10:20:20;18.90;;;8.52;;
22298;SDS011;11317;51.072;17.036;2022-11-04T10:25:20;16.42;;;8.18;;
22298;SDS011;11317;51.072;17.036;2022-11-04T10:27:49;17.90;;;8.57;;
22298;SDS011;11317;51.072;17.036;2022-11-04T10:30:20;17.38;;;8.50;;
22298;SDS011;11317;51.072;17.036;2022-11-04T10:33:07;16.40;;;8.45;;
22298;SDS011;11317;51.072;17.036;2022-11-04T10:35:53;17.13;;;7.95;;
22298;SDS011;11317;51.072;17.036;2022-11-04T10:41:21;15.73;;;8.32;;
22298;SDS011;11317;51.072;17.036;2022-11-04T10:44:02;14.43;;;9.00;;
22298;SDS011;11317;51.072;17.036;2022-11-04T10:51:33;17.58;;;8.75;;
22298;SDS011;11317;51.072;17.036;2022-11-04T10:53:59;22.45;;;8.82;;
22298;SDS011;11317;51.072;17.036;2022-11-04T10:56:44;17.10;;;8.20;;
22298;SDS011;11317;51.072;17.036;2022-11-04T10:59:21;15.27;;;9.63;;
22298;SDS011;11317;51.072;17.036;2022-11-04T11:01:49;22.58;;;11.27;;
22298;SDS011;11317;51.072;17.036;2022-11-04T11:04:24;23.83;;;11.25;;
22298;SDS011;11317;51.072;17.036;2022-11-04T11:06:55;22.45;;;10.48;;
22298;SDS011;11317;51.072;17.036;2022-11-04T11:09:29;16.55;;;9.23;;
22298;SDS011;11317;51.072;17.036;2022-11-04T11:12:04;18.48;;;9.55;;
22298;SDS011;11317;51.072;17.036;2022-11-04T11:14:58;17.40;;;8.77;;
22298;SDS011;11317;51.072;17.036;2022-11-04T11:17:24;16.17;;;9.10;;
22298;SDS011;11317;51.072;17.036;2022-11-04T11:22:44;21.70;;;9.32;;
22298;SDS011;11317;51.072;17.036;2022-11-04T11:27:37;14.90;;;8.48;;
22298;SDS011;11317;51.072;17.036;2022-11-04T11:30:03;14.88;;;8.65;;
22298;SDS011;11317;51.072;17.036;2022-11-04T11:32:30;18.30;;;8.40;;
22298;SDS011;11317;51.072;17.036;2022-11-04T11:34:59;16.00;;;8.75;;
22298;SDS011;11317;51.072;17.036;2022-11-04T11:37:27;14.50;;;8.07;;
22298;SDS011;11317;51.072;17.036;2022-11-04T11:39:58;16.40;;;8.35;;
22298;SDS011;11317;51.072;17.036;2022-11-04T11:42:24;15.20;;;7.97;;
22298;SDS011;11317;51.072;17.036;2022-11-04T11:44:53;13.55;;;8.05;;
22298;SDS011;11317;51.072;17.036;2022-11-04T11:50:04;15.90;;;9.15;;
22298;SDS011;11317;51.072;17.036;2022-11-04T11:53:14;17.90;;;8.95;;
22298;SDS011;11317;51.072;17.036;2022-11-04T11:55:42;14.30;;;8.43;;
22298;SDS011;11317;51.072;17.036;2022-11-04T12:03:26;14.75;;;8.70;;
22298;SDS011;11317;51.072;17.036;2022-11-04T12:11:02;15.00;;;8.38;;
22298;SDS011;11317;51.072;17.036;2022-11-04T12:13:43;12.30;;;8.18;;
22298;SDS011;11317;51.072;17.036;2022-11-04T12:21:48;14.38;;;7.80;;
22298;SDS011;11317;51.072;17.036;2022-11-04T12:46:27;15.90;;;9.18;;
22298;SDS011;11317;51.072;17.036;2022-11-04T13:00:44;15.73;;;7.93;;
22298;SDS011;11317;51.072;17.036;2022-11-04T13:03:20;15.23;;;8.50;;
22298;SDS011;11317;51.072;17.036;2022-11-04T13:06:00;17.42;;;9.32;;
22298;SDS011;11317;51.072;17.036;2022-11-04T13:08:44;16.05;;;8.57;;
22298;SDS011;11317;51.072;17.036;2022-11-04T13:11:25;16.92;;;9.00;;
22298;SDS011;11317;51.072;17.036;2022-11-04T13:14:01;16.95;;;9.10;;
22298;SDS011;11317;51.072;17.036;2022-11-04T13:16:45;21.27;;;9.10;;
22298;SDS011;11317;51.072;17.036;2022-11-04T13:19:24;13.10;;;8.25;;
22298;SDS011;11317;51.072;17.036;2022-11-04T13:24:27;13.48;;;8.10;;
22298;SDS011;11317;51.072;17.036;2022-11-04T13:26:57;16.60;;;8.20;;
22298;SDS011;11317;51.072;17.036;2022-11-04T13:29:37;19.25;;;9.20;;
22298;SDS011;11317;51.072;17.036;2022-11-04T13:32:10;17.88;;;8.50;;
22298;SDS011;11317;51.072;17.036;2022-11-04T13:38:09;15.95;;;8.93;;
22298;SDS011;11317;51.072;17.036;2022-11-04T13:43:33;17.05;;;9.55;;
22298;SDS011;11317;51.072;17.036;2022-11-04T13:48:35;17.63;;;9.30;;
22298;SDS011;11317;51.072;17.036;2022-11-04T13:51:08;17.50;;;8.98;;
22298;SDS011;11317;51.072;17.036;2022-11-04T13:56:28;15.98;;;8.20;;
22298;SDS011;11317;51.072;17.036;2022-11-04T13:58:58;14.88;;;8.65;;
22298;SDS011;11317;51.072;17.036;2022-11-04T14:01:29;14.30;;;7.78;;
22298;SDS011;11317;51.072;17.036;2022-11-04T14:19:59;16.23;;;8.57;;
22298;SDS011;11317;51.072;17.036;2022-11-04T14:25:22;20.83;;;9.23;;
22298;SDS011;11317;51.072;17.036;2022-11-04T14:27:52;16.60;;;8.60;;
22298;SDS011;11317;51.072;17.036;2022-11-04T14:30:26;17.90;;;9.25;;
22298;SDS011;11317;51.072;17.036;2022-11-04T14:35:49;16.15;;;8.82;;
22298;SDS011;11317;51.072;17.036;2022-11-04T14:38:30;19.25;;;9.63;;
22298;SDS011;11317;51.072;17.036;2022-11-04T14:41:20;17.73;;;9.02;;
22298;SDS011;11317;51.072;17.036;2022-11-04T14:43:46;16.38;;;8.13;;
22298;SDS011;11317;51.072;17.036;2022-11-04T14:46:17;15.18;;;8.77;;
22298;SDS011;11317;51.072;17.036;2022-11-04T14:48:48;18.17;;;9.68;;
22298;SDS011;11317;51.072;17.036;2022-11-04T14:51:26;17.60;;;9.63;;
22298;SDS011;11317;51.072;17.036;2022-11-04T14:54:04;18.40;;;9.40;;
22298;SDS011;11317;51.072;17.036;2022-11-04T14:56:34;17.45;;;9.65;;
22298;SDS011;11317;51.072;17.036;2022-11-04T14:59:06;15.82;;;8.65;;
22298;SDS011;11317;51.072;17.036;2022-11-04T15:01:38;16.88;;;9.07;;
22298;SDS011;11317;51.072;17.036;2022-11-04T15:07:03;15.48;;;8.27;;
22298;SDS011;11317;51.072;17.036;2022-11-04T15:09:33;21.55;;;9.63;;
22298;SDS011;11317;51.072;17.036;2022-11-04T15:14:56;16.35;;;8.95;;
22298;SDS011;11317;51.072;17.036;2022-11-04T15:17:23;17.65;;;9.73;;
22298;SDS011;11317;51.072;17.036;2022-11-04T15:19:53;20.38;;;9.80;;
22298;SDS011;11317;51.072;17.036;2022-11-04T15:22:22;16.80;;;9.25;;
22298;SDS011;11317;51.072;17.036;2022-11-04T15:24:48;17.63;;;9.18;;
22298;SDS011;11317;51.072;17.036;2022-11-04T15:27:18;16.70;;;8.40;;
22298;SDS011;11317;51.072;17.036;2022-11-04T15:29:52;21.67;;;9.52;;
22298;SDS011;11317;51.072;17.036;2022-11-04T15:32:18;15.93;;;9.00;;
22298;SDS011;11317;51.072;17.036;2022-11-04T15:34:44;17.55;;;9.40;;
22298;SDS011;11317;51.072;17.036;2022-11-04T15:37:11;16.08;;;9.65;;
22298;SDS011;11317;51.072;17.036;2022-11-04T15:39:42;18.15;;;10.18;;
22298;SDS011;11317;51.072;17.036;2022-11-04T15:42:15;22.08;;;10.65;;
22298;SDS011;11317;51.072;17.036;2022-11-04T15:48:25;27.50;;;14.45;;
22298;SDS011;11317;51.072;17.036;2022-11-04T15:51:03;21.33;;;11.10;;
22298;SDS011;11317;51.072;17.036;2022-11-04T15:54:00;24.35;;;11.60;;
22298;SDS011;11317;51.072;17.036;2022-11-04T15:56:31;25.90;;;12.50;;
22298;SDS011;11317;51.072;17.036;2022-11-04T15:58:59;34.55;;;14.35;;
22298;SDS011;11317;51.072;17.036;2022-11-04T16:01:26;35.15;;;15.57;;
22298;SDS011;11317;51.072;17.036;2022-11-04T16:03:54;32.70;;;16.52;;
22298;SDS011;11317;51.072;17.036;2022-11-04T16:06:34;33.75;;;14.73;;
22298;SDS011;11317;51.072;17.036;2022-11-04T16:09:03;24.95;;;13.43;;
22298;SDS011;11317;51.072;17.036;2022-11-04T16:11:31;26.73;;;12.90;;
22298;SDS011;11317;51.072;17.036;2022-11-04T16:16:44;20.98;;;11.95;;
22298;SDS011;11317;51.072;17.036;2022-11-04T16:19:16;25.77;;;11.95;;
22298;SDS011;11317;51.072;17.036;2022-11-04T16:21:59;23.60;;;12.57;;
22298;SDS011;11317;51.072;17.036;2022-11-04T16:24:38;24.05;;;11.77;;
22298;SDS011;11317;51.072;17.036;2022-11-04T16:27:07;22.92;;;12.35;;
22298;SDS011;11317;51.072;17.036;2022-11-04T16:29:35;21.00;;;12.05;;
22298;SDS011;11317;51.072;17.036;2022-11-04T16:34:48;26.58;;;13.20;;
22298;SDS011;11317;51.072;17.036;2022-11-04T16:37:15;29.27;;;13.32;;
22298;SDS011;11317;51.072;17.036;2022-11-04T16:39:42;26.65;;;13.45;;
22298;SDS011;11317;51.072;17.036;2022-11-04T16:42:10;23.88;;;12.98;;
22298;SDS011;11317;51.072;17.036;2022-11-04T16:44:38;27.75;;;14.20;;
22298;SDS011;11317;51.072;17.036;2022-11-04T16:47:04;27.10;;;13.82;;
22298;SDS011;11317;51.072;17.036;2022-11-04T16:49:30;29.55;;;14.32;;
22298;SDS011;11317;51.072;17.036;2022-11-04T16:52:00;25.05;;;14.05;;
22298;SDS011;11317;51.072;17.036;2022-11-04T16:54:27;30.48;;;15.55;;
22298;SDS011;11317;51.072;17.036;2022-11-04T16:56:54;62.72;;;29.33;;
22298;SDS011;11317;51.072;17.036;2022-11-04T16:59:20;48.67;;;20.80;;
22298;SDS011;11317;51.072;17.036;2022-11-04T17:01:46;39.75;;;19.52;;
22298;SDS011;11317;51.072;17.036;2022-11-04T17:04:12;40.50;;;20.63;;
22298;SDS011;11317;51.072;17.036;2022-11-04T17:06:38;40.35;;;18.33;;
22298;SDS011;11317;51.072;17.036;2022-11-04T17:09:08;34.75;;;17.88;;
22298;SDS011;11317;51.072;17.036;2022-11-04T17:11:42;29.92;;;17.17;;
22298;SDS011;11317;51.072;17.036;2022-11-04T17:14:08;36.03;;;18.23;;
22298;SDS011;11317;51.072;17.036;2022-11-04T17:16:34;31.95;;;16.98;;
22298;SDS011;11317;51.072;17.036;2022-11-04T17:19:00;33.22;;;17.08;;
22298;SDS011;11317;51.072;17.036;2022-11-04T17:21:26;37.33;;;19.48;;